createdAt,value
2023-05-07T00:01:42.010Z,1.47
2023-05-07T00:04:11.276Z,1.20
2023-05-07T00:06:39.033Z,1.37
2023-05-07T00:09:06.533Z,1.30
2023-05-07T00:11:35.053Z,1.20
2023-05-07T00:14:03.960Z,1.30
2023-05-07T00:16:31.624Z,1.50
2023-05-07T00:18:59.117Z,1.27
2023-05-07T00:21:28.048Z,1.20
2023-05-07T00:23:55.874Z,1.00
2023-05-07T00:26:25.811Z,1.37
2023-05-07T00:28:53.273Z,1.07
2023-05-07T00:31:20.801Z,1.50
2023-05-07T00:33:48.556Z,1.57
2023-05-07T00:36:16.023Z,1.67
2023-05-07T00:38:44.819Z,1.30
2023-05-07T00:41:12.314Z,1.67
2023-05-07T00:43:39.826Z,1.40
2023-05-07T00:46:07.431Z,1.53
2023-05-07T00:48:35.183Z,1.90
2023-05-07T00:51:02.740Z,1.50
2023-05-07T00:53:30.254Z,1.40
2023-05-07T00:55:59.241Z,1.33
2023-05-07T00:58:26.764Z,1.33
2023-05-07T01:00:54.255Z,1.50
2023-05-07T01:03:22.574Z,1.10
2023-05-07T01:05:51.259Z,1.23
2023-05-07T01:08:19.750Z,1.50
2023-05-07T01:10:47.581Z,1.30
2023-05-07T01:13:16.544Z,1.20
2023-05-07T01:15:44.723Z,1.83
2023-05-07T01:18:12.381Z,1.60
2023-05-07T01:20:40.069Z,1.27
2023-05-07T01:23:09.088Z,1.47
2023-05-07T01:25:36.664Z,1.47
2023-05-07T01:28:04.212Z,1.30
2023-05-07T01:30:31.785Z,1.70
2023-05-07T01:33:01.644Z,1.30
2023-05-07T01:35:31.483Z,1.40
2023-05-07T01:37:59.122Z,1.40
2023-05-07T01:40:27.995Z,1.70
2023-05-07T01:42:56.230Z,1.20
2023-05-07T01:45:23.795Z,1.10
2023-05-07T01:47:51.735Z,1.70
2023-05-07T01:50:20.669Z,1.70
2023-05-07T01:52:49.181Z,1.47
2023-05-07T01:55:16.614Z,1.90
2023-05-07T01:57:45.461Z,1.30
2023-05-07T02:00:13.943Z,1.30
2023-05-07T02:02:41.666Z,1.83
2023-05-07T02:05:10.069Z,1.30
2023-05-07T02:07:37.533Z,1.53
2023-05-07T02:10:06.036Z,1.17
2023-05-07T02:12:33.589Z,1.50
2023-05-07T02:15:03.536Z,1.43
2023-05-07T02:17:34.205Z,2.07
2023-05-07T02:20:01.759Z,1.63
2023-05-07T02:22:29.237Z,1.40
2023-05-07T02:24:56.662Z,1.47
2023-05-07T02:27:24.126Z,1.63
2023-05-07T02:29:51.576Z,1.70
2023-05-07T02:32:20.736Z,1.40
2023-05-07T02:34:48.192Z,1.60
2023-05-07T02:37:15.633Z,2.17
2023-05-07T02:39:43.083Z,2.07
2023-05-07T02:42:10.537Z,1.80
2023-05-07T02:44:38.023Z,1.57
2023-05-07T02:47:05.919Z,1.60
2023-05-07T02:49:34.904Z,1.50
2023-05-07T02:52:02.455Z,1.70
2023-05-07T02:54:29.920Z,1.60
2023-05-07T02:56:57.361Z,1.60
2023-05-07T02:59:26.146Z,1.67
2023-05-07T03:01:53.618Z,2.07
2023-05-07T03:04:21.337Z,1.47
2023-05-07T03:06:50.242Z,2.20
2023-05-07T03:09:17.726Z,1.40
2023-05-07T03:11:45.428Z,1.67
2023-05-07T03:14:12.870Z,1.87
2023-05-07T03:16:41.145Z,1.60
2023-05-07T03:19:08.687Z,1.50
2023-05-07T03:21:36.227Z,2.20
2023-05-07T03:24:05.536Z,1.53
2023-05-07T03:26:32.995Z,1.90
2023-05-07T03:29:00.439Z,1.80
2023-05-07T03:31:27.929Z,2.03
2023-05-07T03:33:57.058Z,2.00
2023-05-07T03:36:25.062Z,2.10
2023-05-07T03:38:52.554Z,1.97
2023-05-07T03:41:21.647Z,1.57
2023-05-07T03:43:49.111Z,1.47
2023-05-07T03:46:16.697Z,2.23
2023-05-07T03:48:44.176Z,1.70
2023-05-07T03:51:11.624Z,2.07
2023-05-07T03:53:39.114Z,2.07
2023-05-07T03:56:06.825Z,1.57
2023-05-07T03:58:35.831Z,1.70
2023-05-07T04:01:03.690Z,2.13
2023-05-07T04:03:31.409Z,1.80
2023-05-07T04:05:58.971Z,2.17
2023-05-07T04:08:26.705Z,1.63
2023-05-07T04:10:57.018Z,2.27
2023-05-07T04:13:24.736Z,2.43
2023-05-07T04:15:53.836Z,1.90
2023-05-07T04:18:22.204Z,2.27
2023-05-07T04:20:50.218Z,1.50
2023-05-07T04:23:17.973Z,1.73
2023-05-07T04:25:46.092Z,2.10
2023-05-07T04:28:13.747Z,2.20
2023-05-07T04:30:42.185Z,1.53
2023-05-07T04:33:11.494Z,1.97
2023-05-07T04:35:39.152Z,1.77
2023-05-07T04:38:06.625Z,1.57
2023-05-07T04:40:34.085Z,2.17
2023-05-07T04:43:02.168Z,1.53
2023-05-07T04:45:29.634Z,1.80
2023-05-07T04:47:57.146Z,1.90
2023-05-07T04:50:26.839Z,2.30
2023-05-07T04:52:54.478Z,1.60
2023-05-07T04:55:21.969Z,2.70
2023-05-07T04:57:49.430Z,2.10
2023-05-07T05:00:17.555Z,2.30
2023-05-07T05:02:45.084Z,2.00
2023-05-07T05:05:12.685Z,1.97
2023-05-07T05:07:41.470Z,2.20
2023-05-07T05:10:09.445Z,2.37
2023-05-07T05:12:37.129Z,3.07
2023-05-07T05:15:05.376Z,2.33
2023-05-07T05:17:32.874Z,1.83
2023-05-07T05:20:00.468Z,2.00
2023-05-07T05:22:30.695Z,1.60
2023-05-07T05:24:59.508Z,1.60
2023-05-07T05:27:27.027Z,2.00
2023-05-07T05:29:54.481Z,2.00
2023-05-07T05:32:22.087Z,2.60
2023-05-07T05:34:49.990Z,2.20
2023-05-07T05:37:17.583Z,1.90
2023-05-07T05:39:45.129Z,2.10
2023-05-07T05:42:13.918Z,1.93
2023-05-07T05:44:41.389Z,2.17
2023-05-07T05:47:08.947Z,2.30
2023-05-07T05:49:36.448Z,1.77
2023-05-07T05:52:04.105Z,1.77
2023-05-07T05:54:32.986Z,2.37
2023-05-07T05:57:00.462Z,2.00
2023-05-07T05:59:29.316Z,2.03
2023-05-07T06:01:56.889Z,2.83
2023-05-07T06:04:24.355Z,2.00
2023-05-07T06:06:51.864Z,2.37
2023-05-07T06:09:19.301Z,2.33
2023-05-07T06:11:46.810Z,2.00
2023-05-07T06:14:14.290Z,2.50
2023-05-07T06:16:43.176Z,2.20
2023-05-07T06:19:10.651Z,1.70
2023-05-07T06:21:38.126Z,1.90
2023-05-07T06:24:05.988Z,2.40
2023-05-07T06:26:33.450Z,1.93
2023-05-07T06:29:00.899Z,2.50
2023-05-07T06:31:31.774Z,2.40
2023-05-07T06:34:03.405Z,2.60
2023-05-07T06:36:31.139Z,2.17
2023-05-07T06:38:58.648Z,2.30
2023-05-07T06:41:26.814Z,1.80
2023-05-07T06:43:54.334Z,1.80
2023-05-07T06:46:22.270Z,2.43
2023-05-07T06:48:49.919Z,1.83
2023-05-07T06:51:18.699Z,2.33
2023-05-07T06:53:46.173Z,2.30
2023-05-07T06:56:13.675Z,2.27
2023-05-07T06:58:41.181Z,2.27
2023-05-07T07:01:08.727Z,2.47
2023-05-07T07:03:36.221Z,2.83
2023-05-07T07:06:04.197Z,3.17
2023-05-07T07:08:33.057Z,2.50
2023-05-07T07:11:00.517Z,2.70
2023-05-07T07:13:28.063Z,2.10
2023-05-07T07:15:55.724Z,2.67
2023-05-07T07:18:23.239Z,2.80
2023-05-07T07:20:50.936Z,2.40
2023-05-07T07:23:18.382Z,2.50
2023-05-07T07:25:47.413Z,2.47
2023-05-07T07:28:14.897Z,2.37
2023-05-07T07:30:42.369Z,2.30
2023-05-07T07:33:09.879Z,2.47
2023-05-07T07:35:37.467Z,3.10
2023-05-07T07:38:04.925Z,2.13
2023-05-07T07:40:32.402Z,2.27
2023-05-07T07:43:02.216Z,2.60
2023-05-07T07:45:29.983Z,2.10
2023-05-07T07:47:57.473Z,2.83
2023-05-07T07:50:36.050Z,2.27
2023-05-07T07:53:10.874Z,2.53
2023-05-07T07:55:40.497Z,2.57
2023-05-07T07:58:09.438Z,3.10
2023-05-07T08:00:37.008Z,2.60
2023-05-07T08:03:06.168Z,2.40
2023-05-07T08:05:33.853Z,2.70
2023-05-07T08:08:01.332Z,2.80
2023-05-07T08:10:29.044Z,2.40
2023-05-07T08:12:56.578Z,2.87
2023-05-07T08:15:25.404Z,2.40
2023-05-07T08:17:52.897Z,2.60
2023-05-07T08:20:20.758Z,2.77
2023-05-07T08:22:48.241Z,2.43
2023-05-07T08:25:15.757Z,2.40
2023-05-07T08:27:43.247Z,2.37
2023-05-07T08:30:11.994Z,2.73
2023-05-07T08:32:41.096Z,2.63
2023-05-07T08:35:09.507Z,2.60
2023-05-07T08:37:36.979Z,2.90
2023-05-07T08:40:06.598Z,2.63
2023-05-07T08:42:37.879Z,2.77
2023-05-07T08:45:07.618Z,2.53
2023-05-07T08:47:39.506Z,3.20
2023-05-07T08:50:09.523Z,3.07
2023-05-07T08:52:37.405Z,2.90
2023-05-07T08:55:05.984Z,2.73
2023-05-07T08:57:33.499Z,3.20
2023-05-07T09:00:01.048Z,2.80
2023-05-07T09:02:28.586Z,3.17
2023-05-07T09:04:56.285Z,3.50
2023-05-07T09:07:25.630Z,3.20
2023-05-07T09:09:53.133Z,2.60
2023-05-07T09:12:20.697Z,2.80
2023-05-07T09:14:48.178Z,2.97
2023-05-07T09:17:15.664Z,3.17
2023-05-07T09:19:43.118Z,2.53
2023-05-07T09:22:10.593Z,3.00
2023-05-07T09:24:39.584Z,2.43
2023-05-07T09:27:07.863Z,3.17
2023-05-07T09:29:36.390Z,3.47
2023-05-07T09:32:04.547Z,3.00
2023-05-07T09:34:32.208Z,3.23
2023-05-07T09:37:00.709Z,2.60
2023-05-07T09:39:28.217Z,2.87
2023-05-07T09:41:59.401Z,3.53
2023-05-07T09:44:27.716Z,2.53
2023-05-07T09:46:56.583Z,3.30
2023-05-07T09:49:25.835Z,2.83
2023-05-07T09:51:54.672Z,3.30
2023-05-07T09:54:22.135Z,2.63
2023-05-07T09:56:50.279Z,2.70
2023-05-07T09:59:19.077Z,3.10
2023-05-07T10:01:47.054Z,3.20
2023-05-07T10:04:14.791Z,2.90
2023-05-07T10:06:42.831Z,3.27
2023-05-07T10:09:10.703Z,3.07
2023-05-07T10:11:38.871Z,2.80
2023-05-07T10:14:07.304Z,2.87
2023-05-07T10:16:38.067Z,3.10
2023-05-07T10:19:05.826Z,2.67
2023-05-07T10:21:36.062Z,3.17
2023-05-07T10:24:09.397Z,2.90
2023-05-07T10:26:37.254Z,2.60
2023-05-07T10:29:09.377Z,3.10
2023-05-07T10:31:51.337Z,2.80
2023-05-07T10:34:24.367Z,2.60
2023-05-07T10:36:52.802Z,3.20
2023-05-07T10:39:21.670Z,3.50
2023-05-07T10:41:49.278Z,3.50
2023-05-07T10:44:27.930Z,3.40
2023-05-07T10:47:09.889Z,3.10
2023-05-07T10:49:38.332Z,3.43
2023-05-07T10:52:16.876Z,2.80
2023-05-07T10:54:45.397Z,3.07
2023-05-07T10:57:35.085Z,2.80
2023-05-07T11:00:02.647Z,2.80
2023-05-07T11:03:08.024Z,3.30
2023-05-07T11:05:38.252Z,3.60
2023-05-07T11:08:06.958Z,2.97
2023-05-07T11:10:50.164Z,2.80
2023-05-07T11:13:17.889Z,3.20
2023-05-07T11:15:46.892Z,3.23
2023-05-07T11:18:17.050Z,5.47
2023-05-07T11:20:49.860Z,3.40
2023-05-07T11:24:09.743Z,3.17
2023-05-07T11:26:45.902Z,1.90
2023-05-07T11:29:14.897Z,2.30
2023-05-07T11:31:42.608Z,2.33
2023-05-07T11:34:11.592Z,2.27
2023-05-07T11:36:44.698Z,2.00
2023-05-07T11:39:28.839Z,2.57
2023-05-07T11:41:56.673Z,2.07
2023-05-07T11:44:24.291Z,1.63
2023-05-07T11:46:51.985Z,1.93
2023-05-07T11:49:21.025Z,1.90
2023-05-07T11:51:48.572Z,2.57
2023-05-07T11:54:18.076Z,1.83
2023-05-07T11:56:46.056Z,2.10
2023-05-07T11:59:13.559Z,1.83
2023-05-07T12:01:41.060Z,2.20
2023-05-07T12:04:08.769Z,1.80
2023-05-07T12:06:40.018Z,2.10
2023-05-07T12:09:12.393Z,2.73
2023-05-07T12:11:41.576Z,2.93
2023-05-07T12:14:11.550Z,2.00
2023-05-07T12:16:40.907Z,1.90
2023-05-07T12:19:09.840Z,1.90
2023-05-07T12:21:38.702Z,1.53
2023-05-07T12:24:06.931Z,1.90
2023-05-07T12:26:34.419Z,1.87
2023-05-07T12:29:01.943Z,1.40
2023-05-07T12:31:29.480Z,1.67
2023-05-07T12:33:56.965Z,1.80
2023-05-07T12:36:24.412Z,2.70
2023-05-07T12:38:53.378Z,2.10
2023-05-07T12:41:26.581Z,1.63
2023-05-07T12:43:58.326Z,1.63
2023-05-07T12:46:25.872Z,1.40
2023-05-07T12:48:54.421Z,1.87
2023-05-07T12:51:21.949Z,1.70
2023-05-07T12:53:49.429Z,2.20
2023-05-07T12:56:18.705Z,7.07
2023-05-07T12:58:46.164Z,2.73
2023-05-07T13:01:16.451Z,8.00
2023-05-07T13:03:51.235Z,2.30
2023-05-07T13:06:18.843Z,1.80
2023-05-07T13:08:46.415Z,3.80
2023-05-07T13:11:14.519Z,2.13
2023-05-07T13:13:43.560Z,2.17
2023-05-07T13:16:12.612Z,3.37
2023-05-07T13:18:41.403Z,3.30
2023-05-07T13:21:09.233Z,2.53
2023-05-07T13:23:36.680Z,1.83
2023-05-07T13:26:11.492Z,2.10
2023-05-07T13:28:44.326Z,2.70
2023-05-07T13:31:13.487Z,1.37
2023-05-07T13:33:40.969Z,2.20
2023-05-07T13:36:08.810Z,1.53
2023-05-07T13:38:36.347Z,2.60
2023-05-07T13:41:03.817Z,1.77
2023-05-07T13:43:32.768Z,1.60
2023-05-07T13:46:01.914Z,1.60
2023-05-07T13:48:29.635Z,1.80
2023-05-07T13:50:57.058Z,1.73
2023-05-07T13:53:24.581Z,3.53
2023-05-07T13:55:52.060Z,8.47
2023-05-07T13:58:19.532Z,1.50
2023-05-07T14:00:47.051Z,2.27
2023-05-07T14:03:15.998Z,2.17
2023-05-07T14:05:43.675Z,2.70
2023-05-07T14:08:11.859Z,2.53
2023-05-07T14:10:39.319Z,2.50
2023-05-07T14:13:07.341Z,2.60
2023-05-07T14:15:34.980Z,3.20
2023-05-07T14:18:02.693Z,2.30
2023-05-07T14:20:32.037Z,2.30
2023-05-07T14:22:59.498Z,2.70
2023-05-07T14:25:26.966Z,1.87
2023-05-07T14:27:54.502Z,2.30
2023-05-07T14:30:23.261Z,2.70
2023-05-07T14:32:50.933Z,2.83
2023-05-07T14:35:18.656Z,2.40
2023-05-07T14:37:47.438Z,2.57
2023-05-07T14:40:15.615Z,2.33
2023-05-07T14:42:43.084Z,2.17
2023-05-07T14:45:13.925Z,2.40
2023-05-07T14:47:41.680Z,2.40
2023-05-07T14:50:09.598Z,2.43
2023-05-07T14:52:37.080Z,2.60
2023-05-07T14:55:06.870Z,2.30
2023-05-07T14:57:36.700Z,2.40
2023-05-07T15:00:05.886Z,2.47
2023-05-07T15:02:33.405Z,2.00
2023-05-07T15:05:00.986Z,2.20
2023-05-07T15:07:28.442Z,2.07
2023-05-07T15:09:56.220Z,2.57
2023-05-07T15:12:25.020Z,1.90
2023-05-07T15:14:52.467Z,2.50
2023-05-07T15:17:19.944Z,2.20
2023-05-07T15:19:47.393Z,1.93
2023-05-07T15:22:14.869Z,2.30
2023-05-07T15:24:42.863Z,1.67
2023-05-07T15:27:10.374Z,2.37
2023-05-07T15:29:39.156Z,1.90
2023-05-07T15:32:06.964Z,2.20
2023-05-07T15:34:34.541Z,2.53
2023-05-07T15:37:01.851Z,19.30
2023-05-07T15:39:29.782Z,2.83
2023-05-07T15:41:57.251Z,2.90
2023-05-07T15:44:28.284Z,2.40
2023-05-07T15:46:57.165Z,2.07
2023-05-07T15:49:24.644Z,1.80
2023-05-07T15:51:52.979Z,2.00
2023-05-07T15:54:21.138Z,2.60
2023-05-07T15:56:48.865Z,1.70
2023-05-07T15:59:18.169Z,2.60
2023-05-07T16:01:46.155Z,2.50
2023-05-07T16:04:15.119Z,2.57
2023-05-07T16:06:44.759Z,2.27
2023-05-07T16:09:12.320Z,2.10
2023-05-07T16:11:39.907Z,2.60
2023-05-07T16:14:07.542Z,2.30
2023-05-07T16:16:35.485Z,1.50
2023-05-07T16:19:02.983Z,2.00
2023-05-07T16:21:32.821Z,2.20
2023-05-07T16:24:00.662Z,2.33
2023-05-07T16:26:28.229Z,2.13
2023-05-07T16:28:55.822Z,2.50
2023-05-07T16:31:23.603Z,2.73
2023-05-07T16:33:51.284Z,2.50
2023-05-07T16:36:19.092Z,3.60
2023-05-07T16:38:47.941Z,2.20
2023-05-07T16:41:15.404Z,2.17
2023-05-07T16:43:43.013Z,2.27
2023-05-07T16:46:10.581Z,2.90
2023-05-07T16:48:38.159Z,4.00
2023-05-07T16:51:07.182Z,3.17
2023-05-07T16:53:35.810Z,2.80
2023-05-07T16:56:06.813Z,2.20
2023-05-07T16:58:34.479Z,1.90
2023-05-07T17:01:02.388Z,1.77
2023-05-07T17:03:31.991Z,1.77
2023-05-07T17:05:59.681Z,1.93
2023-05-07T17:08:27.161Z,2.13
2023-05-07T17:10:54.763Z,2.10
2023-05-07T17:13:23.633Z,2.17
2023-05-07T17:15:51.215Z,1.67
2023-05-07T17:18:18.839Z,1.77
2023-05-07T17:20:46.264Z,2.47
2023-05-07T17:23:15.289Z,2.07
2023-05-07T17:25:45.377Z,2.27
2023-05-07T17:28:12.883Z,1.70
2023-05-07T17:30:41.750Z,1.70
2023-05-07T17:33:20.099Z,1.97
2023-05-07T17:35:48.797Z,2.50
2023-05-07T17:38:16.275Z,1.90
2023-05-07T17:40:43.732Z,2.50
2023-05-07T17:43:11.228Z,1.77
2023-05-07T17:45:38.842Z,1.63
2023-05-07T17:48:08.115Z,1.80
2023-05-07T17:50:35.588Z,1.40
2023-05-07T17:53:03.134Z,2.10
2023-05-07T17:55:33.493Z,1.87
2023-05-07T17:58:03.218Z,1.70
2023-05-07T18:00:30.793Z,1.80
2023-05-07T18:02:59.918Z,1.90
2023-05-07T18:05:29.392Z,2.10
2023-05-07T18:07:56.974Z,2.00
2023-05-07T18:10:24.439Z,2.00
2023-05-07T18:12:52.010Z,2.50
2023-05-07T18:15:19.578Z,2.10
2023-05-07T18:17:47.095Z,2.17
2023-05-07T18:20:14.706Z,2.13
2023-05-07T18:22:43.500Z,1.87
2023-05-07T18:25:11.338Z,1.97
2023-05-07T18:27:38.806Z,2.80
2023-05-07T18:30:07.550Z,2.17
2023-05-07T18:32:35.103Z,2.20
2023-05-07T18:35:02.557Z,2.23
2023-05-07T18:37:30.913Z,2.50
2023-05-07T18:40:02.761Z,1.90
2023-05-07T18:42:30.697Z,2.00
2023-05-07T18:44:58.645Z,2.27
2023-05-07T18:47:26.126Z,2.27
2023-05-07T18:49:53.553Z,2.10
2023-05-07T18:52:22.120Z,2.57
2023-05-07T18:54:49.576Z,2.40
2023-05-07T18:57:18.416Z,2.47
2023-05-07T18:59:45.970Z,2.80
2023-05-07T19:02:14.310Z,2.50
2023-05-07T19:04:41.826Z,2.57
2023-05-07T19:07:21.414Z,3.43
2023-05-07T19:10:03.713Z,2.80
2023-05-07T19:12:33.546Z,2.73
2023-05-07T19:15:01.052Z,2.63
2023-05-07T19:17:28.687Z,3.30
2023-05-07T19:19:56.244Z,3.30
2023-05-07T19:22:24.880Z,3.13
2023-05-07T19:24:52.414Z,3.43
2023-05-07T19:27:19.956Z,2.77
2023-05-07T19:29:48.730Z,2.57
2023-05-07T19:32:16.179Z,3.40
2023-05-07T19:34:43.908Z,3.00
2023-05-07T19:37:11.340Z,2.97
2023-05-07T19:39:38.800Z,2.80
2023-05-07T19:42:06.776Z,3.03
2023-05-07T19:44:34.247Z,2.80
2023-05-07T19:47:03.649Z,3.00
2023-05-07T19:49:31.150Z,3.50
2023-05-07T19:51:58.629Z,3.87
2023-05-07T19:54:26.227Z,3.60
2023-05-07T19:56:53.713Z,3.20
2023-05-07T19:59:21.397Z,3.47
2023-05-07T20:01:48.874Z,3.00
2023-05-07T20:04:17.672Z,3.40
2023-05-07T20:06:45.147Z,3.43
2023-05-07T20:09:13.557Z,3.60
2023-05-07T20:11:41.232Z,3.87
2023-05-07T20:14:09.996Z,3.93
2023-05-07T20:16:37.581Z,3.77
2023-05-07T20:19:05.039Z,3.50
2023-05-07T20:21:33.861Z,3.53
2023-05-07T20:26:43.063Z,3.57
2023-05-07T20:29:10.553Z,3.30
2023-05-07T20:31:38.128Z,3.77
2023-05-07T20:34:05.600Z,3.60
2023-05-07T20:36:35.865Z,3.13
2023-05-07T20:39:04.127Z,3.33
2023-05-07T20:41:31.579Z,3.67
2023-05-07T20:44:00.333Z,2.50
2023-05-07T20:46:27.961Z,2.93
2023-05-07T20:48:56.537Z,3.40
2023-05-07T20:51:24.066Z,2.87
2023-05-07T20:53:52.838Z,3.53
2023-05-07T20:56:21.320Z,4.20
2023-05-07T20:58:48.833Z,4.10
2023-05-07T21:01:16.327Z,5.97
2023-05-07T21:03:43.889Z,3.30
2023-05-07T21:06:11.436Z,3.93
2023-05-07T21:08:39.019Z,3.70
2023-05-07T21:11:09.807Z,4.00
2023-05-07T21:13:37.289Z,3.43
2023-05-07T21:16:05.391Z,4.50
2023-05-07T21:18:33.542Z,4.70
2023-05-07T21:21:01.041Z,4.17
2023-05-07T21:23:28.551Z,3.97
2023-05-07T21:25:56.019Z,4.33
2023-05-07T21:28:24.816Z,4.50
2023-05-07T21:30:53.170Z,4.00
2023-05-07T21:33:20.829Z,4.30
2023-05-07T21:35:48.287Z,4.17
2023-05-07T21:38:15.820Z,3.93
2023-05-07T21:40:43.277Z,4.80
2023-05-07T21:43:10.720Z,4.40
2023-05-07T21:45:39.905Z,3.77
2023-05-07T21:48:07.970Z,3.93
2023-05-07T21:50:35.782Z,4.17
2023-05-07T21:53:03.240Z,4.00
2023-05-07T21:55:30.701Z,4.40
2023-05-07T21:58:05.566Z,4.10
2023-05-07T22:00:33.998Z,3.80
2023-05-07T22:03:02.882Z,3.87
2023-05-07T22:05:30.521Z,4.20
2023-05-07T22:07:57.991Z,5.00
2023-05-07T22:10:25.640Z,4.03
2023-05-07T22:12:53.177Z,4.17
2023-05-07T22:15:20.809Z,5.03
2023-05-07T22:17:48.273Z,4.97
2023-05-07T22:20:17.409Z,5.07
2023-05-07T22:22:50.337Z,4.20
2023-05-07T22:25:20.018Z,4.40
2023-05-07T22:27:47.520Z,4.73
2023-05-07T22:30:15.291Z,4.87
2023-05-07T22:32:43.423Z,5.50
2023-05-07T22:35:11.414Z,6.70
2023-05-07T22:37:40.247Z,5.87
2023-05-07T22:40:08.901Z,7.20
2023-05-07T22:42:36.497Z,5.60
2023-05-07T22:45:04.130Z,6.10
2023-05-07T22:47:31.737Z,7.43
2023-05-07T22:49:59.263Z,6.57
2023-05-07T22:52:26.752Z,7.50
2023-05-07T22:54:55.562Z,7.20
2023-05-07T22:57:23.033Z,6.53
2023-05-07T22:59:54.587Z,6.73
2023-05-07T23:02:22.306Z,7.17
2023-05-07T23:04:49.949Z,6.10
2023-05-07T23:07:17.412Z,7.07
2023-05-07T23:09:45.074Z,6.43
2023-05-07T23:12:13.920Z,7.30
2023-05-07T23:14:41.421Z,7.20
2023-05-07T23:17:09.125Z,5.87
2023-05-07T23:19:36.987Z,7.00
2023-05-07T23:22:04.536Z,7.03
2023-05-07T23:24:32.026Z,6.57
2023-05-07T23:29:28.339Z,6.10
2023-05-07T23:31:55.793Z,7.10
2023-05-07T23:34:24.252Z,6.70
2023-05-07T23:36:52.010Z,6.60
2023-05-07T23:39:19.625Z,8.00
2023-05-07T23:41:47.502Z,7.50
2023-05-07T23:44:16.344Z,6.90
2023-05-07T23:46:45.452Z,7.37
2023-05-07T23:49:13.016Z,6.87
2023-05-07T23:51:40.454Z,6.40
2023-05-07T23:54:07.968Z,6.83
2023-05-07T23:56:35.518Z,6.70
2023-05-07T23:59:03.236Z,7.40
